Time;durP1;ratioP1;P1;durP2;ratioP2;P2;SDS_P1;SDS_P2;PMS_P1;PMS_P2;Temp;Humidity;BMP_temperature;BMP_pressure;BME280_temperature;BME280_humidity;BME280_pressure;Samples;Min_cycle;Max_cycle;Signal;HPM_P1;HPM_P2
2023/05/24 00:00:06;;;;;;;9.93;2.90;;;;;;;11.67;62.57;102387.38;5034988;28;20473;-83
2023/05/24 00:02:33;;;;;;;9.63;3.33;;;;;;;11.68;62.14;102378.56;5018072;28;20039;-83
2023/05/24 00:04:59;;;;;;;9.80;2.92;;;;;;;11.67;62.36;102374.13;5034598;28;20030;-83
2023/05/24 00:07:25;;;;;;;8.43;3.10;;;;;;;11.65;62.94;102367.91;5001125;28;20033;-83
2023/05/24 00:09:50;;;;;;;8.02;2.60;;;;;;;11.67;62.58;102374.13;5017155;28;20462;-83
2023/05/24 00:12:16;;;;;;;9.45;3.13;;;;;;;11.60;62.61;102369.47;5017156;28;20034;-84
2023/05/24 00:14:41;;;;;;;9.13;3.08;;;;;;;11.64;62.54;102373.13;5017991;28;20091;-82
2023/05/24 00:17:07;;;;;;;7.80;3.00;;;;;;;11.62;62.85;102364.25;5000852;28;20033;-83
2023/05/24 00:19:32;;;;;;;8.50;2.70;;;;;;;11.65;62.58;102352.00;5000600;28;20049;-83
2023/05/24 00:21:58;;;;;;;10.25;3.05;;;;;;;11.53;62.92;102349.88;5034556;28;20580;-83
2023/05/24 00:24:25;;;;;;;13.13;3.00;;;;;;;11.46;62.59;102347.88;5000649;28;20389;-84
2023/05/24 00:26:51;;;;;;;9.30;3.15;;;;;;;11.29;63.75;102341.16;5034572;28;20037;-83
2023/05/24 00:29:16;;;;;;;7.25;2.78;;;;;;;11.16;63.98;102345.16;5034865;28;20029;-83
2023/05/24 00:31:42;;;;;;;12.27;2.95;;;;;;;11.05;64.80;102351.88;5016486;28;20029;-83
2023/05/24 00:34:07;;;;;;;17.90;3.40;;;;;;;11.02;64.38;102347.38;5016610;28;20030;-83
2023/05/24 00:36:32;;;;;;;7.75;2.78;;;;;;;10.87;64.70;102348.59;5034069;28;20389;-83
2023/05/24 00:38:58;;;;;;;9.05;3.05;;;;;;;10.96;64.92;102351.53;5000656;28;20053;-83
2023/05/24 00:41:23;;;;;;;8.40;2.83;;;;;;;10.95;64.87;102341.81;5034440;28;20037;-83
2023/05/24 00:43:49;;;;;;;9.88;3.00;;;;;;;10.87;64.64;102338.00;5017029;28;20068;-84
2023/05/24 00:46:14;;;;;;;11.32;3.15;;;;;;;10.89;64.92;102346.91;5034242;28;20061;-83
2023/05/24 00:48:41;;;;;;;8.73;2.85;;;;;;;10.90;64.89;102338.13;5033996;28;20083;-83
2023/05/24 00:51:07;;;;;;;7.90;2.80;;;;;;;10.87;64.84;102340.66;5033956;28;20075;-83
2023/05/24 00:53:34;;;;;;;9.23;2.97;;;;;;;10.83;64.65;102346.69;5000546;28;20029;-83
2023/05/24 00:56:00;;;;;;;9.32;3.05;;;;;;;10.83;65.18;102347.56;5033969;28;20087;-83
2023/05/24 00:58:29;;;;;;;8.68;2.90;;;;;;;10.81;65.01;102344.00;5000311;28;20374;-83
2023/05/24 01:00:58;;;;;;;10.82;3.00;;;;;;;10.93;64.77;102344.41;5034633;28;20056;-83
2023/05/24 01:03:25;;;;;;;9.15;3.05;;;;;;;10.99;64.79;102335.78;5016878;28;20362;-84
2023/05/24 01:05:51;;;;;;;8.98;3.00;;;;;;;10.93;64.85;102336.47;4999940;28;20388;-86
2023/05/24 01:08:38;;;;;;;8.98;3.22;;;;;;;10.88;65.22;102340.72;5033813;28;20026;-83
2023/05/24 01:11:08;;;;;;;8.20;2.92;;;;;;;10.68;65.48;102334.75;5016671;28;20484;-83
2023/05/24 01:13:48;;;;;;;9.00;3.28;;;;;;;10.47;65.70;102334.00;5033499;28;20033;-83
2023/05/24 01:16:23;;;;;;;10.45;3.15;;;;;;;10.37;66.25;102329.25;5033678;28;20116;-83
2023/05/24 01:19:04;;;;;;;8.50;3.08;;;;;;;10.31;66.35;102326.38;5016003;28;20057;-83
2023/05/24 01:21:48;;;;;;;11.50;3.30;;;;;;;10.23;66.85;102337.53;5034230;28;20038;-83
2023/05/24 01:24:26;;;;;;;8.43;2.90;;;;;;;10.06;67.75;102328.09;5015450;28;20030;-83
2023/05/24 01:27:00;;;;;;;8.30;3.10;;;;;;;9.85;68.35;102330.88;5033473;28;20021;-83
2023/05/24 01:29:28;;;;;;;11.88;3.13;;;;;;;9.66;68.99;102326.63;5033523;28;20116;-83
2023/05/24 01:31:53;;;;;;;11.93;3.22;;;;;;;9.54;69.50;102326.13;5033450;28;20025;-83
2023/05/24 01:34:19;;;;;;;8.07;3.13;;;;;;;9.59;69.61;102334.22;5015831;28;20458;-82
2023/05/24 01:36:44;;;;;;;10.10;3.10;;;;;;;9.61;69.29;102329.94;5016330;28;20045;-83
2023/05/24 01:39:10;;;;;;;9.90;3.30;;;;;;;9.67;69.29;102340.72;4999347;28;20037;-83
2023/05/24 01:41:44;;;;;;;9.18;2.85;;;;;;;9.68;69.46;102338.16;5033880;28;20453;-83
2023/05/24 01:44:22;;;;;;;11.70;3.33;;;;;;;9.71;69.20;102332.97;5015884;28;20489;-83
2023/05/24 01:46:57;;;;;;;8.30;2.97;;;;;;;9.65;68.92;102316.00;5016327;28;20040;-83
2023/05/24 01:49:29;;;;;;;7.65;3.00;;;;;;;9.70;68.62;102325.00;5036619;28;20477;-83
2023/05/24 01:52:00;;;;;;;;;;;;;;;9.90;65.83;102320.47;5019765;28;20029;-87
2023/05/24 01:54:32;;;;;;;9.05;3.00;;;;;;;9.72;69.05;102318.03;5020037;28;19931;-84
2023/05/24 01:56:58;;;;;;;11.35;3.00;;;;;;;9.68;68.67;102322.31;5037883;28;20037;-84
2023/05/24 01:59:27;;;;;;;10.60;3.20;;;;;;;9.64;68.78;102325.69;5037195;28;20035;-83
2023/05/24 02:01:53;;;;;;;6.95;2.65;;;;;;;9.56;68.85;102329.75;5019847;28;20033;-83
2023/05/24 02:04:18;;;;;;;9.80;3.08;;;;;;;9.42;69.94;102330.94;5019396;28;20116;-83
2023/05/24 02:06:44;;;;;;;8.63;2.97;;;;;;;9.29;69.84;102321.63;5036744;28;20059;-83
2023/05/24 02:09:09;;;;;;;7.43;3.08;;;;;;;9.19;70.47;102330.03;5019337;28;20029;-83
2023/05/24 02:11:35;;;;;;;7.75;3.20;;;;;;;9.21;69.94;102334.53;5019231;28;20037;-83
2023/05/24 02:14:00;;;;;;;6.70;2.85;;;;;;;9.23;70.17;102334.59;5019973;28;20521;-83
2023/05/24 02:16:29;;;;;;;13.98;3.40;;;;;;;9.33;69.79;102342.03;5019276;28;20481;-83
2023/05/24 02:18:57;;;;;;;10.43;3.10;;;;;;;9.37;69.44;102333.41;5018662;28;20053;-83
2023/05/24 02:21:24;;;;;;;9.27;3.08;;;;;;;9.39;68.80;102338.75;5019189;28;20045;-83
2023/05/24 02:23:49;;;;;;;10.93;3.00;;;;;;;9.36;69.19;102326.31;5019315;28;20033;-82
2023/05/24 02:26:17;;;;;;;11.25;3.17;;;;;;;9.34;69.63;102346.50;5036643;28;20115;-82
2023/05/24 02:28:43;;;;;;;9.20;3.00;;;;;;;9.36;69.51;102343.91;5018921;28;20025;-82
2023/05/24 02:31:09;;;;;;;8.45;3.10;;;;;;;9.23;69.70;102331.97;5018795;28;20037;-83
2023/05/24 02:33:35;;;;;;;9.80;3.17;;;;;;;9.41;69.33;102344.97;5019167;28;20057;-83
2023/05/24 02:36:01;;;;;;;12.43;3.40;;;;;;;9.38;69.66;102342.22;5036585;28;20124;-83
2023/05/24 02:38:26;;;;;;;9.80;2.88;;;;;;;9.31;70.04;102337.53;5036246;28;20057;-82
2023/05/24 02:40:52;;;;;;;13.77;3.17;;;;;;;9.23;70.20;102342.50;5036808;28;20026;-82
2023/05/24 02:43:17;;;;;;;11.90;3.15;;;;;;;9.13;69.68;102332.44;5019176;28;20029;-82
2023/05/24 02:45:42;;;;;;;9.48;3.20;;;;;;;9.07;70.51;102337.44;5036371;28;20412;-82
2023/05/24 02:48:08;;;;;;;9.93;3.00;;;;;;;9.04;69.48;102340.88;5002090;28;20026;-82
2023/05/24 02:50:33;;;;;;;9.57;3.13;;;;;;;8.99;70.41;102342.41;5018583;28;20033;-83
2023/05/24 02:52:58;;;;;;;11.43;3.28;;;;;;;9.01;70.59;102346.00;5018567;28;20528;-82
2023/05/24 02:55:24;;;;;;;9.85;2.90;;;;;;;9.03;70.13;102344.31;5036205;28;20434;-82
2023/05/24 02:57:50;;;;;;;10.10;3.30;;;;;;;8.97;69.79;102334.44;5018606;28;20087;-82
2023/05/24 03:00:17;;;;;;;12.93;3.45;;;;;;;8.99;70.20;102343.31;5034793;28;20120;-83
2023/05/24 03:02:43;;;;;;;10.32;2.88;;;;;;;9.02;70.18;102337.25;5019149;28;20125;-83
2023/05/24 03:05:08;;;;;;;8.00;3.03;;;;;;;9.06;69.46;102346.19;5002218;28;20057;-83
2023/05/24 03:07:33;;;;;;;8.13;2.97;;;;;;;9.07;69.67;102340.09;5018134;28;20069;-85
2023/05/24 03:09:59;;;;;;;9.48;3.15;;;;;;;9.05;70.01;102337.41;5018255;28;20043;-83
2023/05/24 03:12:24;;;;;;;9.07;3.40;;;;;;;9.06;69.21;102339.19;5035889;28;20060;-82
2023/05/24 03:14:50;;;;;;;12.73;3.55;;;;;;;9.01;70.29;102335.47;5018049;28;20060;-83
2023/05/24 03:17:15;;;;;;;9.02;3.45;;;;;;;8.95;70.51;102332.56;5035801;28;20393;-83
2023/05/24 03:19:40;;;;;;;11.32;3.88;;;;;;;8.89;70.84;102334.97;4980025;28;20120;-82
2023/05/24 03:22:06;;;;;;;15.57;3.50;;;;;;;8.78;71.88;102331.91;4996373;28;20030;-83
2023/05/24 03:24:34;;;;;;;9.45;3.42;;;;;;;8.72;71.70;102328.97;4994827;28;20034;-82
2023/05/24 03:26:59;;;;;;;10.13;3.60;;;;;;;8.74;72.04;102329.97;4994849;28;20034;-82
2023/05/24 03:29:25;;;;;;;10.25;3.65;;;;;;;8.75;72.02;102331.75;4995070;28;20426;-83
2023/05/24 03:31:50;;;;;;;10.70;3.72;;;;;;;8.80;71.11;102314.38;4996391;28;20038;-82
2023/05/24 03:34:16;;;;;;;11.73;3.42;;;;;;;8.89;71.16;102320.03;4996108;28;20052;-82
2023/05/24 03:36:42;;;;;;;8.35;3.78;;;;;;;8.92;71.17;102325.44;4996371;28;20038;-83
2023/05/24 03:39:07;;;;;;;8.20;3.78;;;;;;;8.86;71.15;102317.25;4996090;28;20066;-83
2023/05/24 03:41:32;;;;;;;9.60;3.83;;;;;;;8.89;71.58;102327.06;4978585;28;20038;-82
2023/05/24 03:43:58;;;;;;;9.43;3.42;;;;;;;8.83;71.75;102324.19;4994679;28;20503;-82
2023/05/24 03:46:24;;;;;;;9.90;4.18;;;;;;;8.82;71.18;102327.63;4995851;28;20038;-82
2023/05/24 03:48:49;;;;;;;11.25;3.65;;;;;;;8.87;71.40;102324.38;4979197;28;20038;-82
2023/05/24 03:51:15;;;;;;;10.57;3.65;;;;;;;8.89;71.17;102334.97;4994663;28;20096;-82
2023/05/24 03:53:40;;;;;;;7.90;3.80;;;;;;;8.82;71.99;102330.25;4994179;28;20089;-82
2023/05/24 03:56:06;;;;;;;8.13;3.60;;;;;;;8.76;72.50;102330.91;4978645;28;20105;-82
2023/05/24 03:58:31;;;;;;;10.60;3.47;;;;;;;8.71;72.37;102319.28;4978127;28;20046;-83
2023/05/24 04:00:57;;;;;;;9.00;3.60;;;;;;;8.75;72.27;102329.13;4995661;28;20046;-82
2023/05/24 04:03:24;;;;;;;12.25;3.75;;;;;;;8.74;72.64;102320.31;4996077;28;20043;-83
2023/05/24 04:05:50;;;;;;;8.98;4.07;;;;;;;8.71;72.64;102322.81;4994377;28;20035;-82
2023/05/24 04:08:18;;;;;;;9.07;3.83;;;;;;;8.67;72.79;102326.16;4993960;28;20041;-82
2023/05/24 04:10:45;;;;;;;12.57;3.80;;;;;;;8.65;73.87;102325.19;4995002;28;20030;-82
2023/05/24 04:13:11;;;;;;;10.55;3.92;;;;;;;8.68;73.01;102321.78;4994098;28;20034;-82
2023/05/24 04:15:36;;;;;;;12.35;3.90;;;;;;;8.88;72.74;102320.00;4995588;28;20082;-82
2023/05/24 04:18:02;;;;;;;9.52;4.05;;;;;;;8.94;72.92;102331.66;5006540;28;20053;-82
2023/05/24 04:20:28;;;;;;;9.32;3.67;;;;;;;8.86;72.79;102335.72;5035068;28;20042;-82
2023/05/24 04:22:56;;;;;;;14.55;3.72;;;;;;;8.87;72.88;102336.66;5034788;28;20038;-82
2023/05/24 04:25:21;;;;;;;9.63;3.88;;;;;;;8.74;74.14;102330.84;5034731;28;20132;-82
2023/05/24 04:27:47;;;;;;;12.18;4.47;;;;;;;8.73;74.31;102336.94;5017403;28;20183;-82
2023/05/24 04:30:14;;;;;;;13.70;4.63;;;;;;;8.69;74.37;102335.03;5016668;28;20155;-83
2023/05/24 04:32:40;;;;;;;11.80;4.68;;;;;;;8.64;74.66;102327.75;5000659;28;20029;-82
2023/05/24 04:35:07;;;;;;;14.15;4.93;;;;;;;8.70;74.52;102328.94;5034038;28;20060;-82
2023/05/24 04:37:32;;;;;;;12.25;4.85;;;;;;;8.80;75.20;102340.75;5034226;28;20088;-82
2023/05/24 04:39:58;;;;;;;11.80;4.60;;;;;;;8.98;74.87;102328.31;5033940;28;20485;-83
2023/05/24 04:42:23;;;;;;;11.00;4.35;;;;;;;9.18;73.97;102339.69;5000077;28;20474;-83
2023/05/24 04:44:48;;;;;;;12.13;4.80;;;;;;;9.27;73.96;102331.25;5016759;28;20029;-82
2023/05/24 04:47:15;;;;;;;16.05;4.80;;;;;;;9.40;74.13;102346.72;5017094;28;20124;-83
2023/05/24 04:49:40;;;;;;;14.45;5.13;;;;;;;9.43;73.80;102335.41;5034095;28;20120;-83
2023/05/24 04:52:06;;;;;;;15.48;5.05;;;;;;;9.60;73.72;102343.97;5033761;28;20108;-83
2023/05/24 04:54:32;;;;;;;15.68;5.28;;;;;;;9.71;73.79;102337.34;5033971;28;20484;-82
2023/05/24 04:56:58;;;;;;;13.93;4.63;;;;;;;9.81;73.77;102346.50;5033957;28;20489;-83
2023/05/24 04:59:23;;;;;;;18.92;5.40;;;;;;;9.92;73.73;102339.91;5034210;28;20037;-83
2023/05/24 05:01:49;;;;;;;13.75;5.03;;;;;;;10.01;73.63;102343.78;5016819;28;20116;-83
2023/05/24 05:04:14;;;;;;;14.15;4.95;;;;;;;10.13;73.27;102345.97;5000281;28;20519;-83
2023/05/24 05:06:42;;;;;;;14.50;5.45;;;;;;;10.14;73.55;102328.38;5033812;28;20116;-83
2023/05/24 05:09:09;;;;;;;14.02;5.00;;;;;;;10.26;73.29;102342.97;5016091;28;20045;-83
2023/05/24 05:11:35;;;;;;;21.05;5.43;;;;;;;10.33;73.71;102335.28;5033692;28;20044;-83
2023/05/24 05:14:01;;;;;;;14.82;5.63;;;;;;;10.47;73.60;102342.84;5016219;28;20469;-82
2023/05/24 05:16:26;;;;;;;13.95;5.32;;;;;;;10.57;73.68;102335.22;5016724;28;20033;-83
2023/05/24 05:18:51;;;;;;;17.08;6.05;;;;;;;10.72;73.54;102341.03;4983349;28;20045;-83
2023/05/24 05:21:19;;;;;;;13.25;5.57;;;;;;;10.90;73.68;102343.41;5001870;28;20033;-84
2023/05/24 05:23:45;;;;;;;22.17;6.10;;;;;;;11.05;73.51;102346.56;5033402;28;20029;-83
2023/05/24 05:26:13;;;;;;;24.45;6.15;;;;;;;11.17;73.15;102340.75;5016375;28;20034;-83
2023/05/24 05:28:41;;;;;;;16.73;5.97;;;;;;;11.38;73.03;102351.13;4984419;28;20037;-83
2023/05/24 05:31:06;;;;;;;17.27;6.18;;;;;;;11.57;72.93;102356.16;5033745;28;20089;-83
2023/05/24 05:33:31;;;;;;;14.85;5.97;;;;;;;11.64;73.12;102336.94;5016498;28;20112;-83
2023/05/24 05:35:57;;;;;;;18.23;5.90;;;;;;;11.85;72.99;102357.03;5033425;28;20044;-83
2023/05/24 05:38:22;;;;;;;12.63;5.68;;;;;;;11.93;72.18;102352.84;5015585;28;20390;-84
2023/05/24 05:40:48;;;;;;;20.00;6.70;;;;;;;12.00;71.98;102349.53;4999321;28;20040;-83
2023/05/24 05:43:13;;;;;;;19.80;5.47;;;;;;;12.15;71.56;102344.66;4999253;28;20505;-83
2023/05/24 05:45:39;;;;;;;18.80;5.82;;;;;;;12.25;72.37;102338.78;5033302;28;20037;-83
2023/05/24 05:48:05;;;;;;;18.40;5.60;;;;;;;12.39;71.73;102333.84;5015444;28;20037;-83
2023/05/24 05:50:30;;;;;;;23.73;6.22;;;;;;;12.52;71.67;102335.97;5015923;28;20057;-84
2023/05/24 05:52:56;;;;;;;21.45;5.78;;;;;;;12.74;71.43;102337.44;4983284;28;20490;-84
2023/05/24 05:55:23;;;;;;;22.42;6.13;;;;;;;12.93;70.63;102341.47;4999737;28;20036;-84
2023/05/24 05:57:48;;;;;;;17.55;5.75;;;;;;;13.19;70.90;102352.72;5015774;28;20036;-84
2023/05/24 06:00:14;;;;;;;19.70;5.95;;;;;;;13.39;68.97;102361.16;5015531;28;20029;-83
2023/05/24 06:02:39;;;;;;;17.63;5.47;;;;;;;13.59;68.42;102358.97;4999237;28;20068;-84
2023/05/24 06:05:05;;;;;;;19.30;5.18;;;;;;;13.80;68.69;102355.00;4999123;28;20037;-84
2023/05/24 06:07:31;;;;;;;22.20;5.97;;;;;;;13.91;67.81;102356.13;5015709;28;20486;-84
2023/05/24 06:09:57;;;;;;;24.05;5.75;;;;;;;13.92;67.43;102349.97;5015505;28;20045;-84
2023/05/24 06:12:22;;;;;;;20.83;5.45;;;;;;;14.10;66.30;102362.75;5016132;28;20115;-85
2023/05/24 06:14:49;;;;;;;19.70;5.90;;;;;;;14.15;65.98;102364.63;5015377;28;20029;-83
2023/05/24 06:17:15;;;;;;;19.95;5.90;;;;;;;14.21;65.85;102353.19;5015188;28;20057;-83
2023/05/24 06:19:42;;;;;;;23.88;5.45;;;;;;;14.29;64.97;102354.25;5033348;28;20072;-83
2023/05/24 06:22:08;;;;;;;21.80;5.72;;;;;;;14.40;64.84;102358.03;5032677;28;20501;-84
2023/05/24 06:24:34;;;;;;;20.63;5.57;;;;;;;14.60;64.55;102371.72;5014853;28;20026;-84
2023/05/24 06:26:59;;;;;;;21.70;5.78;;;;;;;14.71;63.68;102377.25;5032813;28;20044;-84
2023/05/24 06:29:25;;;;;;;20.02;5.78;;;;;;;14.84;63.78;102355.31;5015798;28;20037;-85
2023/05/24 06:31:50;;;;;;;19.52;5.85;;;;;;;15.06;62.64;102372.53;5033579;28;20048;-84
2023/05/24 06:34:17;;;;;;;19.45;6.03;;;;;;;15.18;62.54;102367.41;5016174;28;20029;-84
2023/05/24 06:36:46;;;;;;;21.13;5.57;;;;;;;15.27;61.70;102369.31;5018799;28;20477;-84
2023/05/24 06:39:15;;;;;;;24.27;6.13;;;;;;;15.29;62.38;102364.94;5019268;28;20036;-84
2023/05/24 06:41:42;;;;;;;18.77;5.57;;;;;;;15.44;61.78;102362.50;5018798;28;20079;-84
2023/05/24 06:44:08;;;;;;;23.73;6.15;;;;;;;15.58;62.22;102362.69;5018938;28;20488;-84
2023/05/24 06:46:34;;;;;;;26.15;6.03;;;;;;;15.69;60.25;102369.13;5018515;28;20025;-83
2023/05/24 06:48:59;;;;;;;21.85;5.70;;;;;;;15.84;60.81;102363.09;5036526;28;20088;-83
2023/05/24 06:51:27;;;;;;;23.05;6.00;;;;;;;15.92;59.45;102361.41;5018650;28;20088;-83
2023/05/24 06:53:52;;;;;;;19.52;6.03;;;;;;;16.17;59.99;102370.63;5018591;28;20037;-83
2023/05/24 06:56:18;;;;;;;24.42;6.25;;;;;;;16.37;59.56;102369.97;5036202;28;20424;-83
2023/05/24 06:58:43;;;;;;;20.13;5.60;;;;;;;16.61;57.96;102369.31;5036640;28;20061;-84
2023/05/24 07:01:09;;;;;;;24.23;5.82;;;;;;;16.84;56.55;102365.16;5018774;28;20092;-83
2023/05/24 07:03:35;;;;;;;24.02;5.68;;;;;;;17.10;56.31;102367.16;5018270;28;20159;-84
2023/05/24 07:06:00;;;;;;;22.20;6.10;;;;;;;17.38;54.27;102368.25;5035909;28;20063;-84
2023/05/24 07:08:26;;;;;;;21.10;5.32;;;;;;;17.51;55.51;102357.66;5018547;28;20117;-84
2023/05/24 07:10:52;;;;;;;18.65;5.35;;;;;;;17.64;52.32;102357.72;5035780;28;20405;-83
2023/05/24 07:13:18;;;;;;;24.02;5.32;;;;;;;17.72;52.60;102364.00;5036428;28;20436;-83
2023/05/24 07:15:45;;;;;;;20.90;6.00;;;;;;;17.68;51.83;102364.88;5035552;28;20458;-84
2023/05/24 07:18:11;;;;;;;20.40;5.65;;;;;;;17.95;51.35;102373.09;5035271;28;20418;-84
2023/05/24 07:20:36;;;;;;;21.00;5.72;;;;;;;18.03;51.01;102370.44;5017823;28;20042;-84
2023/05/24 07:23:03;;;;;;;20.70;4.97;;;;;;;18.16;50.80;102372.28;5018288;28;20049;-84
2023/05/24 07:25:28;;;;;;;18.88;4.85;;;;;;;18.34;50.06;102371.44;5018587;28;20030;-84
2023/05/24 07:27:56;;;;;;;17.77;5.13;;;;;;;18.33;48.81;102371.41;5001859;28;20112;-84
2023/05/24 07:30:24;;;;;;;17.77;4.97;;;;;;;18.49;49.12;102367.91;5035247;28;20447;-84
2023/05/24 07:32:49;;;;;;;16.70;5.00;;;;;;;18.70;48.55;102381.38;5001635;28;20124;-83
2023/05/24 07:35:15;;;;;;;17.52;4.97;;;;;;;18.80;47.32;102376.94;5035491;28;20112;-83
2023/05/24 07:37:41;;;;;;;15.90;5.05;;;;;;;18.91;47.83;102382.28;5036038;28;20041;-83
2023/05/24 07:40:10;;;;;;;17.20;5.10;;;;;;;18.99;46.15;102370.69;5017626;28;20026;-83
2023/05/24 07:42:35;;;;;;;19.88;5.07;;;;;;;19.06;45.63;102381.38;5017627;28;20036;-84
2023/05/24 07:45:01;;;;;;;18.35;4.93;;;;;;;18.74;46.34;102382.28;5035286;28;20029;-84
2023/05/24 07:47:27;;;;;;;20.85;6.10;;;;;;;18.38;46.87;102380.38;5034518;28;20474;-84
2023/05/24 07:49:52;;;;;;;15.27;4.63;;;;;;;18.35;46.34;102378.59;5017327;28;20034;-84
2023/05/24 07:52:17;;;;;;;16.30;4.28;;;;;;;18.66;46.39;102375.97;5035439;28;20037;-84
2023/05/24 07:54:43;;;;;;;14.50;4.28;;;;;;;18.61;46.28;102367.03;5017292;28;20429;-84
2023/05/24 07:57:08;;;;;;;17.98;5.10;;;;;;;18.53;46.65;102370.59;5034816;28;20041;-84
2023/05/24 07:59:34;;;;;;;21.95;5.10;;;;;;;18.44;46.38;102375.03;5017660;28;20065;-85
2023/05/24 08:02:04;;;;;;;14.30;4.55;;;;;;;18.51;46.77;102379.53;5017873;28;20103;-85
2023/05/24 08:04:30;;;;;;;13.88;4.72;;;;;;;18.76;46.34;102373.38;5017594;28;20496;-85
2023/05/24 08:06:56;;;;;;;16.48;4.90;;;;;;;18.65;46.52;102377.75;5034781;28;20084;-85
2023/05/24 08:09:22;;;;;;;17.58;5.13;;;;;;;18.33;47.09;102385.72;5034856;28;20037;-85
2023/05/24 08:11:47;;;;;;;14.68;4.70;;;;;;;18.15;47.59;102372.25;5017840;28;20047;-86
2023/05/24 08:14:13;;;;;;;17.55;4.72;;;;;;;17.96;47.79;102376.66;5017023;28;20033;-85
2023/05/24 08:16:38;;;;;;;14.27;5.00;;;;;;;17.79;48.78;102378.34;5017131;28;20041;-85
2023/05/24 08:19:04;;;;;;;18.10;5.00;;;;;;;17.58;49.18;102379.06;5016726;28;20497;-85
2023/05/24 08:21:29;;;;;;;17.65;4.63;;;;;;;17.26;49.48;102367.28;5000782;28;20524;-85
2023/05/24 08:23:55;;;;;;;19.08;4.82;;;;;;;17.20;49.79;102377.91;5016883;28;20078;-85
2023/05/24 08:26:23;;;;;;;17.85;4.45;;;;;;;17.31;51.02;102374.44;5016691;28;20025;-85
2023/05/24 08:28:49;;;;;;;15.38;5.28;;;;;;;17.48;48.89;102379.03;5000732;28;20041;-85
2023/05/24 08:31:20;;;;;;;22.38;5.30;;;;;;;17.60;49.08;102372.88;5000051;28;20401;-84
2023/05/24 08:33:49;;;;;;;14.63;4.53;;;;;;;17.51;49.80;102371.03;5017869;28;20029;-85
2023/05/24 08:36:16;;;;;;;12.93;4.20;;;;;;;17.35;48.37;102366.47;5034400;28;20367;-84
2023/05/24 08:38:41;;;;;;;13.43;4.30;;;;;;;17.33;48.90;102364.66;5016563;28;20428;-84
2023/05/24 08:41:10;;;;;;;15.15;4.40;;;;;;;17.57;49.93;102367.50;5016393;28;20083;-85
2023/05/24 08:43:37;;;;;;;18.55;5.00;;;;;;;17.92;47.79;102365.03;5016469;28;20044;-86
2023/05/24 08:46:04;;;;;;;15.20;3.78;;;;;;;18.40;47.16;102359.84;5033907;28;20393;-86
2023/05/24 08:48:33;;;;;;;16.25;4.22;;;;;;;18.66;45.74;102357.22;5016801;28;20034;-87
2023/05/24 08:50:59;;;;;;;17.15;4.20;;;;;;;18.92;44.79;102352.81;5034522;28;20037;-87
2023/05/24 08:53:27;;;;;;;14.48;3.78;;;;;;;19.48;43.49;102356.34;5016242;28;20044;-88
2023/05/24 08:55:54;;;;;;;15.23;4.07;;;;;;;19.82;42.32;102340.19;5016034;28;20037;-88
2023/05/24 08:58:20;;;;;;;16.25;4.55;;;;;;;20.34;41.61;102353.38;5016608;28;20042;-87
2023/05/24 09:00:50;;;;;;;12.38;4.20;;;;;;;20.64;40.59;102336.19;5016232;28;20045;-87
2023/05/24 09:03:19;;;;;;;14.80;4.13;;;;;;;20.98;38.62;102334.13;5016882;28;20372;-88
2023/05/24 09:05:47;;;;;;;12.50;3.83;;;;;;;21.17;37.88;102326.81;5016220;28;20037;-86
2023/05/24 09:08:16;;;;;;;12.23;3.83;;;;;;;21.47;38.91;102331.91;5033340;28;20025;-86
2023/05/24 09:10:43;;;;;;;13.13;4.00;;;;;;;21.68;40.35;102330.78;5033746;28;20033;-85
2023/05/24 09:13:10;;;;;;;13.07;4.13;;;;;;;21.85;37.77;102330.56;5016501;28;20034;-86
2023/05/24 09:15:35;;;;;;;14.60;3.97;;;;;;;21.97;37.49;102335.81;5033437;28;20033;-85
2023/05/24 09:18:01;;;;;;;12.73;3.83;;;;;;;21.97;37.53;102340.31;5016101;28;20492;-85
2023/05/24 09:20:27;;;;;;;14.63;4.20;;;;;;;21.59;38.79;102340.75;5016342;28;20470;-85
2023/05/24 09:22:52;;;;;;;15.57;4.53;;;;;;;21.57;37.67;102332.69;5015917;28;20033;-85
2023/05/24 09:25:22;;;;;;;12.85;4.47;;;;;;;22.00;38.16;102340.25;4999660;28;20037;-86
2023/05/24 09:27:55;;;;;;;13.73;4.30;;;;;;;22.43;37.35;102340.56;5015678;28;20026;-89
2023/05/24 09:30:33;;;;;;;;;;;;;;;;;;;;;
2023/05/24 09:33:15;;;;;;;;;;;;;;;;;;;;;
2023/05/24 09:35:47;;;;;;;12.75;4.97;;;;;;;23.35;33.31;102330.09;5034133;28;20033;-88
2023/05/24 09:38:22;;;;;;;10.68;3.70;;;;;;;23.86;33.01;102333.63;5034292;28;20076;-87
2023/05/24 09:41:02;;;;;;;27.30;18.70;;;;;;;24.05;33.19;102320.59;5015900;28;20029;-89
2023/05/24 09:43:33;;;;;;;14.32;4.65;;;;;;;24.04;32.79;102326.03;5033814;28;20037;-88
2023/05/24 09:52:27;;;;;;;12.55;3.90;;;;;;;22.90;34.55;102327.31;5033433;22;20052;-63
2023/05/24 09:54:53;;;;;;;10.93;4.03;;;;;;;22.69;35.79;102333.91;5052802;28;20025;-63
2023/05/24 09:57:22;;;;;;;11.45;4.03;;;;;;;22.65;34.90;102326.78;5052627;28;20048;-63
2023/05/24 09:59:51;;;;;;;15.80;4.25;;;;;;;23.12;34.86;102327.81;5052792;28;20026;-63
2023/05/24 10:02:20;;;;;;;14.77;4.30;;;;;;;23.48;33.64;102331.66;5052521;28;20390;-62
2023/05/24 10:04:46;;;;;;;12.05;4.00;;;;;;;23.90;33.51;102321.84;5052489;28;20108;-63
2023/05/24 10:07:12;;;;;;;12.65;4.10;;;;;;;24.03;33.93;102318.88;5052474;28;20132;-63
2023/05/24 10:09:37;;;;;;;13.27;4.25;;;;;;;24.30;31.81;102315.53;5054040;28;20074;-63
2023/05/24 10:12:07;;;;;;;13.40;3.50;;;;;;;24.27;32.46;102318.31;5056457;28;20504;-63
2023/05/24 10:14:35;;;;;;;11.55;4.25;;;;;;;23.89;33.03;102327.25;5056434;28;20508;-63
2023/05/24 10:17:03;;;;;;;11.48;3.83;;;;;;;23.65;33.82;102316.06;5056379;28;20075;-63
2023/05/24 10:19:29;;;;;;;14.27;4.15;;;;;;;23.34;32.97;102323.81;5056255;28;20163;-64
2023/05/24 10:21:56;;;;;;;10.07;4.00;;;;;;;23.08;33.81;102326.09;5056204;28;20025;-64
2023/05/24 10:24:24;;;;;;;13.45;3.80;;;;;;;22.83;34.02;102323.81;5056991;28;20097;-64
2023/05/24 10:26:51;;;;;;;11.23;3.65;;;;;;;22.68;34.38;102318.66;5055847;28;20160;-64
2023/05/24 10:29:44;;;;;;;10.70;4.47;;;;;;;22.55;35.32;102315.25;5056503;28;20055;-64
2023/05/24 10:32:10;;;;;;;12.80;4.32;;;;;;;22.56;35.38;102300.88;5056074;28;20040;-64
2023/05/24 10:34:37;;;;;;;10.93;3.90;;;;;;;22.74;35.19;102315.88;5056005;28;20070;-64
2023/05/24 10:37:03;;;;;;;10.82;3.85;;;;;;;22.71;34.06;102311.41;5038104;28;20051;-63
2023/05/24 10:39:32;;;;;;;11.07;3.60;;;;;;;22.42;34.30;102319.06;5055762;28;20021;-63
2023/05/24 10:42:01;;;;;;;11.52;4.00;;;;;;;22.16;34.94;102314.94;5055895;28;20032;-63
2023/05/24 10:44:29;;;;;;;11.55;3.65;;;;;;;21.82;35.72;102313.56;5056205;28;20032;-62
2023/05/24 10:47:08;;;;;;;13.80;4.30;;;;;;;21.83;36.11;102308.16;5055807;28;20474;-63
2023/05/24 10:49:35;;;;;;;11.18;3.65;;;;;;;22.10;34.86;102308.69;5055733;28;20029;-65
2023/05/24 10:52:05;;;;;;;11.38;3.55;;;;;;;22.52;34.30;102309.03;5055537;28;20032;-65
2023/05/24 10:54:31;;;;;;;15.63;3.80;;;;;;;22.79;34.70;102303.19;5055519;28;20134;-68
2023/05/24 10:57:03;;;;;;;12.88;3.97;;;;;;;22.71;35.19;102316.81;5037709;28;20068;-65
2023/05/24 10:59:36;;;;;;;15.00;4.20;;;;;;;22.25;35.35;102316.59;5055678;28;20151;-65
2023/05/24 11:02:05;;;;;;;10.57;4.22;;;;;;;22.06;35.23;102318.66;5055917;28;20029;-65
2023/05/24 11:04:37;;;;;;;12.88;4.38;;;;;;;21.72;35.71;102311.00;5055392;28;20539;-67
2023/05/24 11:07:04;;;;;;;14.60;4.03;;;;;;;21.64;36.46;102310.19;5055333;28;20497;-65
2023/05/24 11:09:31;;;;;;;11.45;4.07;;;;;;;21.40;36.67;102305.97;5055712;28;20072;-65
2023/05/24 11:12:07;;;;;;;11.45;3.90;;;;;;;21.29;37.16;102312.38;5055283;28;20475;-65
2023/05/24 11:14:36;;;;;;;14.52;4.20;;;;;;;21.06;37.29;102313.47;5055643;28;20037;-65
2023/05/24 11:17:02;;;;;;;11.23;3.90;;;;;;;20.97;37.10;102305.50;5055257;28;20037;-65
2023/05/24 11:19:36;;;;;;;11.93;3.85;;;;;;;20.88;37.57;102316.31;5055259;28;20514;-65
2023/05/24 11:22:06;;;;;;;12.27;3.72;;;;;;;20.82;37.73;102319.97;5054178;28;20469;-65
2023/05/24 11:24:32;;;;;;;13.30;4.00;;;;;;;20.75;37.47;102318.22;5055121;28;20159;-66
2023/05/24 11:27:01;;;;;;;14.77;3.88;;;;;;;20.48;39.20;102313.94;5020389;28;20025;-66
2023/05/24 11:29:28;;;;;;;12.23;3.80;;;;;;;20.26;39.40;102306.00;5037099;28;20099;-65